sensor_id;sensor_type;location;lat;lon;timestamp;pressure;altitude;pressure_sealevel;temperature
18219;BMP180;9234;49.344;11.120;2023-06-26T00:00:28;97542.00;;;17.90
18219;BMP180;9234;49.344;11.120;2023-06-26T00:02:57;97542.00;;;17.90
18219;BMP180;9234;49.344;11.120;2023-06-26T00:05:25;97526.00;;;17.80
18219;BMP180;9234;49.344;11.120;2023-06-26T00:07:54;97535.00;;;17.80
18219;BMP180;9234;49.344;11.120;2023-06-26T00:10:25;97541.00;;;17.80
18219;BMP180;9234;49.344;11.120;2023-06-26T00:12:53;97536.00;;;17.70
18219;BMP180;9234;49.344;11.120;2023-06-26T00:15:22;97534.00;;;17.70
18219;BMP180;9234;49.344;11.120;2023-06-26T00:17:51;97539.00;;;17.60
18219;BMP180;9234;49.344;11.120;2023-06-26T00:20:19;97529.00;;;17.60
18219;BMP180;9234;49.344;11.120;2023-06-26T00:22:47;97533.00;;;17.60
18219;BMP180;9234;49.344;11.120;2023-06-26T00:25:17;97532.00;;;17.50
18219;BMP180;9234;49.344;11.120;2023-06-26T00:27:47;97536.00;;;17.50
18219;BMP180;9234;49.344;11.120;2023-06-26T00:30:15;97537.00;;;17.40
18219;BMP180;9234;49.344;11.120;2023-06-26T00:32:43;97534.00;;;17.40
18219;BMP180;9234;49.344;11.120;2023-06-26T00:35:11;97537.00;;;17.40
18219;BMP180;9234;49.344;11.120;2023-06-26T00:37:39;97538.00;;;17.30
18219;BMP180;9234;49.344;11.120;2023-06-26T00:40:09;97536.00;;;17.30
18219;BMP180;9234;49.344;11.120;2023-06-26T00:42:38;97530.00;;;17.30
18219;BMP180;9234;49.344;11.120;2023-06-26T00:45:08;97536.00;;;17.20
18219;BMP180;9234;49.344;11.120;2023-06-26T00:47:38;97535.00;;;17.20
18219;BMP180;9234;49.344;11.120;2023-06-26T00:50:07;97533.00;;;17.20
18219;BMP180;9234;49.344;11.120;2023-06-26T00:52:37;97542.00;;;17.20
18219;BMP180;9234;49.344;11.120;2023-06-26T00:55:06;97542.00;;;17.10
18219;BMP180;9234;49.344;11.120;2023-06-26T00:57:36;97536.00;;;17.10
18219;BMP180;9234;49.344;11.120;2023-06-26T01:00:08;97529.00;;;17.10
18219;BMP180;9234;49.344;11.120;2023-06-26T01:02:37;97526.00;;;17.00
18219;BMP180;9234;49.344;11.120;2023-06-26T01:05:06;97520.00;;;17.00
18219;BMP180;9234;49.344;11.120;2023-06-26T01:07:40;97526.00;;;17.00
18219;BMP180;9234;49.344;11.120;2023-06-26T01:10:09;97530.00;;;16.90
18219;BMP180;9234;49.344;11.120;2023-06-26T01:12:37;97529.00;;;16.90
18219;BMP180;9234;49.344;11.120;2023-06-26T01:15:09;97527.00;;;16.90
18219;BMP180;9234;49.344;11.120;2023-06-26T01:17:39;97528.00;;;16.80
18219;BMP180;9234;49.344;11.120;2023-06-26T01:20:12;97519.00;;;16.80
18219;BMP180;9234;49.344;11.120;2023-06-26T01:22:56;97520.00;;;16.80
18219;BMP180;9234;49.344;11.120;2023-06-26T01:25:37;97529.00;;;16.70
18219;BMP180;9234;49.344;11.120;2023-06-26T01:28:14;97525.00;;;16.70
18219;BMP180;9234;49.344;11.120;2023-06-26T01:30:45;97524.00;;;16.70
18219;BMP180;9234;49.344;11.120;2023-06-26T01:33:15;97530.00;;;16.60
18219;BMP180;9234;49.344;11.120;2023-06-26T01:35:44;97521.00;;;16.60
18219;BMP180;9234;49.344;11.120;2023-06-26T01:38:14;97525.00;;;16.60
18219;BMP180;9234;49.344;11.120;2023-06-26T01:40:44;97522.00;;;16.50
18219;BMP180;9234;49.344;11.120;2023-06-26T01:43:25;97503.00;;;16.50
18219;BMP180;9234;49.344;11.120;2023-06-26T01:46:01;97502.00;;;16.50
18219;BMP180;9234;49.344;11.120;2023-06-26T01:48:39;97518.00;;;16.40
18219;BMP180;9234;49.344;11.120;2023-06-26T01:51:09;97513.00;;;16.40
18219;BMP180;9234;49.344;11.120;2023-06-26T01:53:45;97510.00;;;16.30
18219;BMP180;9234;49.344;11.120;2023-06-26T01:56:17;97504.00;;;16.30
18219;BMP180;9234;49.344;11.120;2023-06-26T01:58:48;97514.00;;;16.30
18219;BMP180;9234;49.344;11.120;2023-06-26T02:01:20;97499.00;;;16.30
18219;BMP180;9234;49.344;11.120;2023-06-26T02:03:50;97518.00;;;16.20
18219;BMP180;9234;49.344;11.120;2023-06-26T02:06:18;97513.00;;;16.20
18219;BMP180;9234;49.344;11.120;2023-06-26T02:08:47;97509.00;;;16.20
18219;BMP180;9234;49.344;11.120;2023-06-26T02:11:15;97513.00;;;16.10
18219;BMP180;9234;49.344;11.120;2023-06-26T02:13:43;97510.00;;;16.10
18219;BMP180;9234;49.344;11.120;2023-06-26T02:16:14;97512.00;;;16.10
18219;BMP180;9234;49.344;11.120;2023-06-26T02:18:42;97500.00;;;16.00
18219;BMP180;9234;49.344;11.120;2023-06-26T02:21:11;97509.00;;;16.00
18219;BMP180;9234;49.344;11.120;2023-06-26T02:23:39;97509.00;;;16.00
18219;BMP180;9234;49.344;11.120;2023-06-26T02:26:07;97510.00;;;16.00
18219;BMP180;9234;49.344;11.120;2023-06-26T02:28:35;97501.00;;;15.90
18219;BMP180;9234;49.344;11.120;2023-06-26T02:31:03;97497.00;;;15.90
18219;BMP180;9234;49.344;11.120;2023-06-26T02:33:34;97518.00;;;15.90
18219;BMP180;9234;49.344;11.120;2023-06-26T02:36:02;97504.00;;;15.90
18219;BMP180;9234;49.344;11.120;2023-06-26T02:38:32;97500.00;;;15.80
18219;BMP180;9234;49.344;11.120;2023-06-26T02:41:01;97509.00;;;15.80
18219;BMP180;9234;49.344;11.120;2023-06-26T02:43:31;97509.00;;;15.80
18219;BMP180;9234;49.344;11.120;2023-06-26T02:46:00;97515.00;;;15.80
18219;BMP180;9234;49.344;11.120;2023-06-26T02:48:28;97515.00;;;15.70
18219;BMP180;9234;49.344;11.120;2023-06-26T02:50:58;97509.00;;;15.70
18219;BMP180;9234;49.344;11.120;2023-06-26T02:53:30;97498.00;;;15.70
18219;BMP180;9234;49.344;11.120;2023-06-26T02:55:59;97498.00;;;15.70
18219;BMP180;9234;49.344;11.120;2023-06-26T02:58:27;97509.00;;;15.60
18219;BMP180;9234;49.344;11.120;2023-06-26T03:00:55;97502.00;;;15.60
18219;BMP180;9234;49.344;11.120;2023-06-26T03:03:24;97510.00;;;15.60
18219;BMP180;9234;49.344;11.120;2023-06-26T03:05:52;97504.00;;;15.60
18219;BMP180;9234;49.344;11.120;2023-06-26T03:08:22;97505.00;;;15.60
18219;BMP180;9234;49.344;11.120;2023-06-26T03:10:51;97499.00;;;15.50
18219;BMP180;9234;49.344;11.120;2023-06-26T03:13:19;97490.00;;;15.50
18219;BMP180;9234;49.344;11.120;2023-06-26T03:15:47;97497.00;;;15.50
18219;BMP180;9234;49.344;11.120;2023-06-26T03:18:16;97495.00;;;15.50
18219;BMP180;9234;49.344;11.120;2023-06-26T03:20:44;97497.00;;;15.50
18219;BMP180;9234;49.344;11.120;2023-06-26T03:23:12;97495.00;;;15.40
18219;BMP180;9234;49.344;11.120;2023-06-26T03:25:42;97497.00;;;15.40
18219;BMP180;9234;49.344;11.120;2023-06-26T03:28:23;97502.00;;;15.40
18219;BMP180;9234;49.344;11.120;2023-06-26T03:30:51;97503.00;;;15.40
18219;BMP180;9234;49.344;11.120;2023-06-26T03:33:20;97503.00;;;15.40
18219;BMP180;9234;49.344;11.120;2023-06-26T03:35:48;97500.00;;;15.40
18219;BMP180;9234;49.344;11.120;2023-06-26T03:38:17;97495.00;;;15.40
18219;BMP180;9234;49.344;11.120;2023-06-26T03:40:47;97503.00;;;15.40
18219;BMP180;9234;49.344;11.120;2023-06-26T03:43:16;97491.00;;;15.40
18219;BMP180;9234;49.344;11.120;2023-06-26T03:46:04;97501.00;;;15.40
18219;BMP180;9234;49.344;11.120;2023-06-26T03:48:33;97496.00;;;15.40
18219;BMP180;9234;49.344;11.120;2023-06-26T03:51:01;97496.00;;;15.40
18219;BMP180;9234;49.344;11.120;2023-06-26T03:53:30;97511.00;;;15.40
18219;BMP180;9234;49.344;11.120;2023-06-26T03:56:00;97496.00;;;15.50
18219;BMP180;9234;49.344;11.120;2023-06-26T03:58:28;97485.00;;;15.50
18219;BMP180;9234;49.344;11.120;2023-06-26T04:00:56;97493.00;;;15.50
18219;BMP180;9234;49.344;11.120;2023-06-26T04:03:25;97485.00;;;15.50
18219;BMP180;9234;49.344;11.120;2023-06-26T04:05:53;97490.00;;;15.60
18219;BMP180;9234;49.344;11.120;2023-06-26T04:08:24;97493.00;;;15.60
18219;BMP180;9234;49.344;11.120;2023-06-26T04:10:53;97490.00;;;15.70
18219;BMP180;9234;49.344;11.120;2023-06-26T04:13:25;97515.00;;;15.70
18219;BMP180;9234;49.344;11.120;2023-06-26T04:15:54;97509.00;;;15.70
18219;BMP180;9234;49.344;11.120;2023-06-26T04:18:22;97500.00;;;15.80
18219;BMP180;9234;49.344;11.120;2023-06-26T04:21:07;97495.00;;;15.80
18219;BMP180;9234;49.344;11.120;2023-06-26T04:23:35;97495.00;;;15.90
18219;BMP180;9234;49.344;11.120;2023-06-26T04:26:05;97491.00;;;15.90
18219;BMP180;9234;49.344;11.120;2023-06-26T04:28:35;97500.00;;;16.00
18219;BMP180;9234;49.344;11.120;2023-06-26T04:31:04;97496.00;;;16.00
18219;BMP180;9234;49.344;11.120;2023-06-26T04:33:32;97486.00;;;16.10
18219;BMP180;9234;49.344;11.120;2023-06-26T04:36:03;97492.00;;;16.20
18219;BMP180;9234;49.344;11.120;2023-06-26T04:38:32;97496.00;;;16.20
18219;BMP180;9234;49.344;11.120;2023-06-26T04:41:01;97495.00;;;16.30
18219;BMP180;9234;49.344;11.120;2023-06-26T04:43:30;97495.00;;;16.30
18219;BMP180;9234;49.344;11.120;2023-06-26T04:45:59;97502.00;;;16.40
18219;BMP180;9234;49.344;11.120;2023-06-26T04:48:28;97509.00;;;16.50
18219;BMP180;9234;49.344;11.120;2023-06-26T04:50:58;97509.00;;;16.60
18219;BMP180;9234;49.344;11.120;2023-06-26T04:53:26;97493.00;;;16.60
18219;BMP180;9234;49.344;11.120;2023-06-26T04:55:55;97488.00;;;16.70
18219;BMP180;9234;49.344;11.120;2023-06-26T04:58:23;97501.00;;;16.80
18219;BMP180;9234;49.344;11.120;2023-06-26T05:00:51;97494.00;;;16.90
18219;BMP180;9234;49.344;11.120;2023-06-26T05:03:22;97482.00;;;17.00
18219;BMP180;9234;49.344;11.120;2023-06-26T05:05:50;97485.00;;;17.00
18219;BMP180;9234;49.344;11.120;2023-06-26T05:08:22;97482.00;;;17.10
18219;BMP180;9234;49.344;11.120;2023-06-26T05:10:51;97492.00;;;17.20
18219;BMP180;9234;49.344;11.120;2023-06-26T05:13:20;97487.00;;;17.30
18219;BMP180;9234;49.344;11.120;2023-06-26T05:15:49;97489.00;;;17.40
18219;BMP180;9234;49.344;11.120;2023-06-26T05:18:19;97505.00;;;17.60
18219;BMP180;9234;49.344;11.120;2023-06-26T05:20:48;97486.00;;;17.70
18219;BMP180;9234;49.344;11.120;2023-06-26T05:23:17;97479.00;;;17.80
18219;BMP180;9234;49.344;11.120;2023-06-26T05:25:47;97476.00;;;17.90
18219;BMP180;9234;49.344;11.120;2023-06-26T05:28:17;97482.00;;;18.00
18219;BMP180;9234;49.344;11.120;2023-06-26T05:30:46;97486.00;;;18.10
18219;BMP180;9234;49.344;11.120;2023-06-26T05:33:18;97488.00;;;18.30
18219;BMP180;9234;49.344;11.120;2023-06-26T05:35:49;97483.00;;;18.40
18219;BMP180;9234;49.344;11.120;2023-06-26T05:38:20;97473.00;;;18.40
18219;BMP180;9234;49.344;11.120;2023-06-26T05:40:49;97484.00;;;18.60
18219;BMP180;9234;49.344;11.120;2023-06-26T05:43:18;97467.00;;;18.70
18219;BMP180;9234;49.344;11.120;2023-06-26T05:45:54;97473.00;;;18.80
18219;BMP180;9234;49.344;11.120;2023-06-26T05:48:23;97480.00;;;19.00
18219;BMP180;9234;49.344;11.120;2023-06-26T05:50:53;97483.00;;;19.10
18219;BMP180;9234;49.344;11.120;2023-06-26T05:53:23;97470.00;;;19.20
18219;BMP180;9234;49.344;11.120;2023-06-26T05:55:52;97473.00;;;19.40
18219;BMP180;9234;49.344;11.120;2023-06-26T05:58:24;97462.00;;;19.50
18219;BMP180;9234;49.344;11.120;2023-06-26T06:00:54;97468.00;;;19.60
18219;BMP180;9234;49.344;11.120;2023-06-26T06:03:22;97461.00;;;19.80
18219;BMP180;9234;49.344;11.120;2023-06-26T06:05:52;97461.00;;;20.00
18219;BMP180;9234;49.344;11.120;2023-06-26T06:08:20;97463.00;;;20.10
18219;BMP180;9234;49.344;11.120;2023-06-26T06:10:49;97458.00;;;20.20
18219;BMP180;9234;49.344;11.120;2023-06-26T06:13:17;97466.00;;;20.40
18219;BMP180;9234;49.344;11.120;2023-06-26T06:15:49;97467.00;;;20.60
18219;BMP180;9234;49.344;11.120;2023-06-26T06:18:17;97466.00;;;20.80
18219;BMP180;9234;49.344;11.120;2023-06-26T06:20:45;97472.00;;;20.90
18219;BMP180;9234;49.344;11.120;2023-06-26T06:23:15;97456.00;;;21.10
18219;BMP180;9234;49.344;11.120;2023-06-26T06:25:43;97458.00;;;21.20
18219;BMP180;9234;49.344;11.120;2023-06-26T06:28:11;97462.00;;;21.40
18219;BMP180;9234;49.344;11.120;2023-06-26T06:30:43;97454.00;;;21.60
18219;BMP180;9234;49.344;11.120;2023-06-26T06:33:13;97455.00;;;21.70
18219;BMP180;9234;49.344;11.120;2023-06-26T06:35:41;97461.00;;;21.90
18219;BMP180;9234;49.344;11.120;2023-06-26T06:38:10;97454.00;;;22.10
18219;BMP180;9234;49.344;11.120;2023-06-26T06:40:39;97456.00;;;22.30
18219;BMP180;9234;49.344;11.120;2023-06-26T06:43:08;97466.00;;;22.40
18219;BMP180;9234;49.344;11.120;2023-06-26T06:45:36;97459.00;;;22.60
18219;BMP180;9234;49.344;11.120;2023-06-26T06:48:05;97453.00;;;22.80
18219;BMP180;9234;49.344;11.120;2023-06-26T06:50:34;97458.00;;;22.90
18219;BMP180;9234;49.344;11.120;2023-06-26T06:53:03;97458.00;;;23.10
18219;BMP180;9234;49.344;11.120;2023-06-26T06:55:31;97455.00;;;23.20
18219;BMP180;9234;49.344;11.120;2023-06-26T06:58:01;97458.00;;;23.30
18219;BMP180;9234;49.344;11.120;2023-06-26T07:00:32;97452.00;;;23.50
18219;BMP180;9234;49.344;11.120;2023-06-26T07:03:00;97449.00;;;23.60
18219;BMP180;9234;49.344;11.120;2023-06-26T07:05:29;97447.00;;;23.80
18219;BMP180;9234;49.344;11.120;2023-06-26T07:07:57;97448.00;;;23.90
18219;BMP180;9234;49.344;11.120;2023-06-26T07:10:28;97447.00;;;24.10
18219;BMP180;9234;49.344;11.120;2023-06-26T07:12:57;97445.00;;;24.20
18219;BMP180;9234;49.344;11.120;2023-06-26T07:15:26;97444.00;;;24.40
18219;BMP180;9234;49.344;11.120;2023-06-26T07:17:55;97442.00;;;24.60
18219;BMP180;9234;49.344;11.120;2023-06-26T07:20:23;97453.00;;;24.70
18219;BMP180;9234;49.344;11.120;2023-06-26T07:22:52;97441.00;;;24.80
18219;BMP180;9234;49.344;11.120;2023-06-26T07:25:21;97436.00;;;25.00
18219;BMP180;9234;49.344;11.120;2023-06-26T07:27:49;97441.00;;;25.20
18219;BMP180;9234;49.344;11.120;2023-06-26T07:30:17;97446.00;;;25.30
18219;BMP180;9234;49.344;11.120;2023-06-26T07:32:47;97446.00;;;25.50
18219;BMP180;9234;49.344;11.120;2023-06-26T07:35:16;97436.00;;;25.60
18219;BMP180;9234;49.344;11.120;2023-06-26T07:37:44;97434.00;;;25.80
18219;BMP180;9234;49.344;11.120;2023-06-26T07:40:13;97436.00;;;26.00
18219;BMP180;9234;49.344;11.120;2023-06-26T07:42:44;97437.00;;;26.10
18219;BMP180;9234;49.344;11.120;2023-06-26T07:45:13;97434.00;;;26.20
18219;BMP180;9234;49.344;11.120;2023-06-26T07:47:41;97434.00;;;26.40
18219;BMP180;9234;49.344;11.120;2023-06-26T07:50:11;97430.00;;;26.50
18219;BMP180;9234;49.344;11.120;2023-06-26T07:52:42;97429.00;;;26.70
18219;BMP180;9234;49.344;11.120;2023-06-26T07:55:11;97437.00;;;26.80
18219;BMP180;9234;49.344;11.120;2023-06-26T07:57:39;97439.00;;;27.00
18219;BMP180;9234;49.344;11.120;2023-06-26T08:00:09;97431.00;;;27.10
18219;BMP180;9234;49.344;11.120;2023-06-26T08:02:40;97430.00;;;27.30
18219;BMP180;9234;49.344;11.120;2023-06-26T08:05:08;97427.00;;;27.40
18219;BMP180;9234;49.344;11.120;2023-06-26T08:07:38;97422.00;;;27.60
18219;BMP180;9234;49.344;11.120;2023-06-26T08:10:08;97434.00;;;27.70
18219;BMP180;9234;49.344;11.120;2023-06-26T08:12:39;97430.00;;;27.90
18219;BMP180;9234;49.344;11.120;2023-06-26T08:15:09;97416.00;;;28.10
18219;BMP180;9234;49.344;11.120;2023-06-26T08:17:38;97415.00;;;28.20
18219;BMP180;9234;49.344;11.120;2023-06-26T08:20:08;97424.00;;;28.40
18219;BMP180;9234;49.344;11.120;2023-06-26T08:22:37;97431.00;;;28.50
18219;BMP180;9234;49.344;11.120;2023-06-26T08:25:06;97422.00;;;28.70
18219;BMP180;9234;49.344;11.120;2023-06-26T08:27:35;97411.00;;;28.90
18219;BMP180;9234;49.344;11.120;2023-06-26T08:30:04;97418.00;;;29.10
18219;BMP180;9234;49.344;11.120;2023-06-26T08:32:32;97402.00;;;29.30
18219;BMP180;9234;49.344;11.120;2023-06-26T08:35:01;97406.00;;;29.50
18219;BMP180;9234;49.344;11.120;2023-06-26T08:37:29;97404.00;;;29.70
18219;BMP180;9234;49.344;11.120;2023-06-26T08:40:01;97401.00;;;29.90
18219;BMP180;9234;49.344;11.120;2023-06-26T08:42:30;97400.00;;;30.10
18219;BMP180;9234;49.344;11.120;2023-06-26T08:44:58;97397.00;;;30.30
18219;BMP180;9234;49.344;11.120;2023-06-26T08:47:33;97400.00;;;30.40
18219;BMP180;9234;49.344;11.120;2023-06-26T08:50:10;97411.00;;;30.60
18219;BMP180;9234;49.344;11.120;2023-06-26T08:52:47;97407.00;;;30.80
18219;BMP180;9234;49.344;11.120;2023-06-26T08:55:22;97406.00;;;30.90
18219;BMP180;9234;49.344;11.120;2023-06-26T08:57:51;97401.00;;;31.00
18219;BMP180;9234;49.344;11.120;2023-06-26T09:00:20;97414.00;;;31.20
18219;BMP180;9234;49.344;11.120;2023-06-26T09:02:49;97405.00;;;31.40
18219;BMP180;9234;49.344;11.120;2023-06-26T09:05:17;97408.00;;;31.50
18219;BMP180;9234;49.344;11.120;2023-06-26T09:07:46;97410.00;;;31.70
18219;BMP180;9234;49.344;11.120;2023-06-26T09:10:15;97407.00;;;31.80
18219;BMP180;9234;49.344;11.120;2023-06-26T09:12:47;97399.00;;;31.80
18219;BMP180;9234;49.344;11.120;2023-06-26T09:15:15;97412.00;;;31.80
18219;BMP180;9234;49.344;11.120;2023-06-26T09:17:48;97403.00;;;31.90
18219;BMP180;9234;49.344;11.120;2023-06-26T09:20:17;97396.00;;;32.10
18219;BMP180;9234;49.344;11.120;2023-06-26T09:22:47;97395.00;;;32.40
18219;BMP180;9234;49.344;11.120;2023-06-26T09:25:17;97397.00;;;32.60
18219;BMP180;9234;49.344;11.120;2023-06-26T09:27:47;97392.00;;;32.80
18219;BMP180;9234;49.344;11.120;2023-06-26T09:30:17;97390.00;;;33.00
18219;BMP180;9234;49.344;11.120;2023-06-26T09:32:46;97388.00;;;33.20
18219;BMP180;9234;49.344;11.120;2023-06-26T09:35:15;97383.00;;;33.30
18219;BMP180;9234;49.344;11.120;2023-06-26T09:37:43;97400.00;;;33.40
18219;BMP180;9234;49.344;11.120;2023-06-26T09:40:14;97386.00;;;33.40
18219;BMP180;9234;49.344;11.120;2023-06-26T09:42:43;97397.00;;;33.30
18219;BMP180;9234;49.344;11.120;2023-06-26T09:45:20;97391.00;;;33.40
18219;BMP180;9234;49.344;11.120;2023-06-26T09:47:48;97392.00;;;33.40
18219;BMP180;9234;49.344;11.120;2023-06-26T09:50:24;97398.00;;;33.40
18219;BMP180;9234;49.344;11.120;2023-06-26T09:52:55;97395.00;;;33.50
18219;BMP180;9234;49.344;11.120;2023-06-26T09:55:26;97390.00;;;33.80
18219;BMP180;9234;49.344;11.120;2023-06-26T09:57:56;97388.00;;;34.00
18219;BMP180;9234;49.344;11.120;2023-06-26T10:00:32;97389.00;;;34.00
18219;BMP180;9234;49.344;11.120;2023-06-26T10:03:01;97396.00;;;34.00
18219;BMP180;9234;49.344;11.120;2023-06-26T10:05:30;97378.00;;;33.80
18219;BMP180;9234;49.344;11.120;2023-06-26T10:07:59;97374.00;;;33.90
18219;BMP180;9234;49.344;11.120;2023-06-26T10:10:31;97372.00;;;33.80
18219;BMP180;9234;49.344;11.120;2023-06-26T10:13:06;97378.00;;;33.80
18219;BMP180;9234;49.344;11.120;2023-06-26T10:15:39;97374.00;;;34.00
18219;BMP180;9234;49.344;11.120;2023-06-26T10:18:08;97371.00;;;34.30
18219;BMP180;9234;49.344;11.120;2023-06-26T10:20:38;97376.00;;;34.40
18219;BMP180;9234;49.344;11.120;2023-06-26T10:23:09;97382.00;;;34.60
18219;BMP180;9234;49.344;11.120;2023-06-26T10:25:40;97376.00;;;34.50
18219;BMP180;9234;49.344;11.120;2023-06-26T10:28:10;97371.00;;;34.70
18219;BMP180;9234;49.344;11.120;2023-06-26T10:30:44;97376.00;;;34.80
18219;BMP180;9234;49.344;11.120;2023-06-26T10:33:13;97374.00;;;34.90
18219;BMP180;9234;49.344;11.120;2023-06-26T10:35:43;97378.00;;;35.10
18219;BMP180;9234;49.344;11.120;2023-06-26T10:38:12;97374.00;;;35.30
18219;BMP180;9234;49.344;11.120;2023-06-26T10:40:42;97371.00;;;35.50
18219;BMP180;9234;49.344;11.120;2023-06-26T10:43:13;97369.00;;;35.50
18219;BMP180;9234;49.344;11.120;2023-06-26T10:45:47;97371.00;;;35.50
18219;BMP180;9234;49.344;11.120;2023-06-26T10:48:20;97376.00;;;35.40
18219;BMP180;9234;49.344;11.120;2023-06-26T10:50:50;97369.00;;;35.50
18219;BMP180;9234;49.344;11.120;2023-06-26T10:53:23;97357.00;;;35.70
18219;BMP180;9234;49.344;11.120;2023-06-26T10:56:00;97367.00;;;35.70
18219;BMP180;9234;49.344;11.120;2023-06-26T10:58:42;97362.00;;;36.00
18219;BMP180;9234;49.344;11.120;2023-06-26T11:01:21;97358.00;;;36.30
18219;BMP180;9234;49.344;11.120;2023-06-26T11:04:04;97369.00;;;36.40
18219;BMP180;9234;49.344;11.120;2023-06-26T11:06:34;97363.00;;;36.40
18219;BMP180;9234;49.344;11.120;2023-06-26T11:09:11;97359.00;;;36.30
18219;BMP180;9234;49.344;11.120;2023-06-26T11:11:57;97371.00;;;36.00
18219;BMP180;9234;49.344;11.120;2023-06-26T11:14:35;97373.00;;;35.90
18219;BMP180;9234;49.344;11.120;2023-06-26T11:17:06;97366.00;;;36.20
18219;BMP180;9234;49.344;11.120;2023-06-26T11:19:34;97367.00;;;36.50
18219;BMP180;9234;49.344;11.120;2023-06-26T11:22:04;97377.00;;;36.80
18219;BMP180;9234;49.344;11.120;2023-06-26T11:24:33;97362.00;;;37.00
18219;BMP180;9234;49.344;11.120;2023-06-26T11:27:05;97371.00;;;36.90
18219;BMP180;9234;49.344;11.120;2023-06-26T11:29:34;97374.00;;;36.90
18219;BMP180;9234;49.344;11.120;2023-06-26T11:32:06;97363.00;;;36.90
18219;BMP180;9234;49.344;11.120;2023-06-26T11:34:35;97354.00;;;37.00
18219;BMP180;9234;49.344;11.120;2023-06-26T11:37:05;97356.00;;;37.20
18219;BMP180;9234;49.344;11.120;2023-06-26T11:39:35;97366.00;;;37.10
18219;BMP180;9234;49.344;11.120;2023-06-26T11:42:05;97360.00;;;37.10
18219;BMP180;9234;49.344;11.120;2023-06-26T11:44:40;97358.00;;;37.20
18219;BMP180;9234;49.344;11.120;2023-06-26T11:47:15;97366.00;;;37.40
18219;BMP180;9234;49.344;11.120;2023-06-26T11:49:43;97357.00;;;37.60
18219;BMP180;9234;49.344;11.120;2023-06-26T11:52:13;97351.00;;;37.70
18219;BMP180;9234;49.344;11.120;2023-06-26T11:54:42;97346.00;;;37.80
18219;BMP180;9234;49.344;11.120;2023-06-26T11:57:14;97348.00;;;37.60
18219;BMP180;9234;49.344;11.120;2023-06-26T11:59:44;97348.00;;;37.50
18219;BMP180;9234;49.344;11.120;2023-06-26T12:02:15;97351.00;;;37.40
18219;BMP180;9234;49.344;11.120;2023-06-26T12:04:44;97340.00;;;37.50
18219;BMP180;9234;49.344;11.120;2023-06-26T12:07:14;97349.00;;;37.70
18219;BMP180;9234;49.344;11.120;2023-06-26T12:09:46;97357.00;;;37.60
18219;BMP180;9234;49.344;11.120;2023-06-26T12:12:18;97351.00;;;37.40
18219;BMP180;9234;49.344;11.120;2023-06-26T12:14:46;97349.00;;;37.40
18219;BMP180;9234;49.344;11.120;2023-06-26T12:17:17;97351.00;;;37.20
18219;BMP180;9234;49.344;11.120;2023-06-26T12:19:47;97350.00;;;37.10
18219;BMP180;9234;49.344;11.120;2023-06-26T12:22:18;97351.00;;;37.20
18219;BMP180;9234;49.344;11.120;2023-06-26T12:24:47;97353.00;;;37.50
18219;BMP180;9234;49.344;11.120;2023-06-26T12:27:18;97352.00;;;37.70
18219;BMP180;9234;49.344;11.120;2023-06-26T12:29:52;97353.00;;;38.00
18219;BMP180;9234;49.344;11.120;2023-06-26T12:32:24;97351.00;;;38.10
18219;BMP180;9234;49.344;11.120;2023-06-26T12:34:57;97346.00;;;37.90
18219;BMP180;9234;49.344;11.120;2023-06-26T12:37:26;97348.00;;;37.90
18219;BMP180;9234;49.344;11.120;2023-06-26T12:39:57;97343.00;;;37.90
18219;BMP180;9234;49.344;11.120;2023-06-26T12:42:27;97335.00;;;38.00
18219;BMP180;9234;49.344;11.120;2023-06-26T12:44:56;97345.00;;;37.90
18219;BMP180;9234;49.344;11.120;2023-06-26T12:47:29;97343.00;;;37.80
18219;BMP180;9234;49.344;11.120;2023-06-26T12:49:58;97338.00;;;37.90
18219;BMP180;9234;49.344;11.120;2023-06-26T12:52:27;97342.00;;;37.90
18219;BMP180;9234;49.344;11.120;2023-06-26T12:54:55;97342.00;;;37.60
18219;BMP180;9234;49.344;11.120;2023-06-26T12:57:24;97339.00;;;37.10
18219;BMP180;9234;49.344;11.120;2023-06-26T12:59:53;97333.00;;;37.10
18219;BMP180;9234;49.344;11.120;2023-06-26T13:02:22;97332.00;;;37.10
18219;BMP180;9234;49.344;11.120;2023-06-26T13:04:51;97316.00;;;37.20
18219;BMP180;9234;49.344;11.120;2023-06-26T13:07:20;97317.00;;;37.00
18219;BMP180;9234;49.344;11.120;2023-06-26T13:09:48;97324.00;;;37.20
18219;BMP180;9234;49.344;11.120;2023-06-26T13:12:16;97330.00;;;37.40
18219;BMP180;9234;49.344;11.120;2023-06-26T13:14:45;97327.00;;;37.10
18219;BMP180;9234;49.344;11.120;2023-06-26T13:17:13;97323.00;;;37.00
18219;BMP180;9234;49.344;11.120;2023-06-26T13:19:41;97321.00;;;37.20
18219;BMP180;9234;49.344;11.120;2023-06-26T13:22:11;97316.00;;;38.00
18219;BMP180;9234;49.344;11.120;2023-06-26T13:24:40;97310.00;;;38.90
18219;BMP180;9234;49.344;11.120;2023-06-26T13:27:08;97310.00;;;39.00
18219;BMP180;9234;49.344;11.120;2023-06-26T13:29:36;97307.00;;;38.50
18219;BMP180;9234;49.344;11.120;2023-06-26T13:32:06;97309.00;;;38.00
18219;BMP180;9234;49.344;11.120;2023-06-26T13:34:35;97297.00;;;37.50
18219;BMP180;9234;49.344;11.120;2023-06-26T13:37:03;97301.00;;;37.10
18219;BMP180;9234;49.344;11.120;2023-06-26T13:39:35;97300.00;;;36.70
18219;BMP180;9234;49.344;11.120;2023-06-26T13:42:04;97295.00;;;36.50
18219;BMP180;9234;49.344;11.120;2023-06-26T13:44:34;97299.00;;;36.70
18219;BMP180;9234;49.344;11.120;2023-06-26T13:47:22;97297.00;;;37.00
18219;BMP180;9234;49.344;11.120;2023-06-26T13:49:51;97292.00;;;37.70
18219;BMP180;9234;49.344;11.120;2023-06-26T13:52:19;97301.00;;;38.20
18219;BMP180;9234;49.344;11.120;2023-06-26T13:54:49;97302.00;;;38.80
18219;BMP180;9234;49.344;11.120;2023-06-26T13:57:17;97301.00;;;39.60
18219;BMP180;9234;49.344;11.120;2023-06-26T13:59:46;97298.00;;;40.40
18219;BMP180;9234;49.344;11.120;2023-06-26T14:02:15;97303.00;;;40.10
18219;BMP180;9234;49.344;11.120;2023-06-26T14:04:47;97299.00;;;39.50
18219;BMP180;9234;49.344;11.120;2023-06-26T14:07:15;97303.00;;;39.50
18219;BMP180;9234;49.344;11.120;2023-06-26T14:09:44;97310.00;;;40.20
18219;BMP180;9234;49.344;11.120;2023-06-26T14:12:14;97301.00;;;40.60
18219;BMP180;9234;49.344;11.120;2023-06-26T14:14:42;97308.00;;;40.80
18219;BMP180;9234;49.344;11.120;2023-06-26T14:17:10;97299.00;;;40.70
18219;BMP180;9234;49.344;11.120;2023-06-26T14:19:43;97300.00;;;40.30
18219;BMP180;9234;49.344;11.120;2023-06-26T14:22:12;97302.00;;;40.50
18219;BMP180;9234;49.344;11.120;2023-06-26T14:24:41;97302.00;;;41.20